createdAt,value
2023-07-06T00:01:47.351Z,13.67
2023-07-06T00:04:18.650Z,13.64
2023-07-06T00:06:49.746Z,13.64
2023-07-06T00:09:18.340Z,13.66
2023-07-06T00:11:48.987Z,13.59
2023-07-06T00:14:17.550Z,13.60
2023-07-06T00:16:50.130Z,13.60
2023-07-06T00:19:19.653Z,13.56
2023-07-06T00:21:50.594Z,13.47
2023-07-06T00:24:19.389Z,13.43
2023-07-06T00:26:47.945Z,13.39
2023-07-06T00:29:19.181Z,13.36
2023-07-06T00:32:05.540Z,13.32
2023-07-06T00:34:35.999Z,13.33
2023-07-06T00:37:04.387Z,13.27
2023-07-06T00:39:32.812Z,13.26
2023-07-06T00:42:01.392Z,13.26
2023-07-06T00:44:55.667Z,13.22
2023-07-06T00:47:33.021Z,13.19
2023-07-06T00:50:09.225Z,13.15
2023-07-06T00:52:47.230Z,13.11
2023-07-06T00:55:19.782Z,13.06
2023-07-06T00:57:53.543Z,13.06
2023-07-06T01:00:23.412Z,13.03
2023-07-06T01:03:03.014Z,13.02
2023-07-06T01:05:34.697Z,12.98
2023-07-06T01:08:15.611Z,12.93
2023-07-06T01:10:45.512Z,12.95
2023-07-06T01:13:14.398Z,12.92
2023-07-06T01:15:54.977Z,12.92
2023-07-06T01:19:04.617Z,12.89
2023-07-06T01:21:53.164Z,12.85
2023-07-06T01:24:41.567Z,12.80
2023-07-06T01:27:12.749Z,12.77
2023-07-06T01:30:05.538Z,12.75
2023-07-06T01:32:46.007Z,12.78
2023-07-06T01:35:32.052Z,12.72
2023-07-06T01:38:01.244Z,12.68
2023-07-06T01:40:29.639Z,12.69
2023-07-06T01:43:00.985Z,12.65
2023-07-06T01:45:32.122Z,12.64
2023-07-06T01:48:09.041Z,12.63
2023-07-06T01:50:52.328Z,12.57
2023-07-06T01:53:33.211Z,12.50
2023-07-06T01:56:19.416Z,12.45
2023-07-06T01:59:01.770Z,12.37
2023-07-06T02:01:42.995Z,12.37
2023-07-06T02:04:13.269Z,12.29
2023-07-06T02:06:44.956Z,12.27
2023-07-06T02:09:19.948Z,12.27
2023-07-06T02:11:48.378Z,12.19
2023-07-06T02:14:16.727Z,12.22
2023-07-06T02:16:45.080Z,12.20
2023-07-06T02:19:13.932Z,12.20
2023-07-06T02:21:42.265Z,12.22
2023-07-06T02:24:13.358Z,12.20
2023-07-06T02:26:42.598Z,12.20
2023-07-06T02:29:11.676Z,12.24
2023-07-06T02:31:42.334Z,12.23
2023-07-06T02:34:10.925Z,12.27
2023-07-06T02:36:39.648Z,12.33
2023-07-06T02:39:07.609Z,12.34
2023-07-06T02:41:36.752Z,12.37
2023-07-06T02:44:04.782Z,12.43
2023-07-06T02:46:32.966Z,12.44
2023-07-06T02:49:01.097Z,12.43
2023-07-06T02:51:30.615Z,12.40
2023-07-06T02:53:58.755Z,12.43
2023-07-06T02:56:28.076Z,12.38
2023-07-06T02:58:55.966Z,12.33
2023-07-06T03:01:24.771Z,12.40
2023-07-06T03:03:52.769Z,12.44
2023-07-06T03:06:20.821Z,12.47
2023-07-06T03:08:48.928Z,12.48
2023-07-06T03:11:17.448Z,12.50
2023-07-06T03:13:45.398Z,12.48
2023-07-06T03:16:16.580Z,12.47
2023-07-06T03:18:46.529Z,12.48
2023-07-06T03:21:15.606Z,12.53
2023-07-06T03:23:43.514Z,12.50
2023-07-06T03:26:12.161Z,12.43
2023-07-06T03:28:41.115Z,12.41
2023-07-06T03:31:10.167Z,12.41
2023-07-06T03:33:39.196Z,12.41
2023-07-06T03:36:07.146Z,12.37
2023-07-06T03:38:38.024Z,12.30
2023-07-06T03:41:06.267Z,12.29
2023-07-06T03:43:35.917Z,12.24
2023-07-06T03:46:04.962Z,12.22
2023-07-06T03:48:33.053Z,12.22
2023-07-06T03:51:09.304Z,12.26
2023-07-06T03:53:37.366Z,12.26
2023-07-06T03:56:07.917Z,12.27
2023-07-06T03:58:40.031Z,12.32
2023-07-06T04:01:09.209Z,12.32
2023-07-06T04:03:37.320Z,12.34
2023-07-06T04:06:05.674Z,12.38
2023-07-06T04:08:36.843Z,12.37
2023-07-06T04:11:05.773Z,12.37
2023-07-06T04:13:34.021Z,12.34
2023-07-06T04:16:02.113Z,12.37
2023-07-06T04:18:29.971Z,12.43
2023-07-06T04:21:01.590Z,12.43
2023-07-06T04:23:29.425Z,12.50
2023-07-06T04:25:58.096Z,12.50
2023-07-06T04:28:26.141Z,12.51
2023-07-06T04:30:54.013Z,12.51
2023-07-06T04:33:22.107Z,12.48
2023-07-06T04:35:55.161Z,12.51
2023-07-06T04:38:27.801Z,12.55
2023-07-06T04:40:55.797Z,12.54
2023-07-06T04:43:25.564Z,12.54
2023-07-06T04:45:55.804Z,12.61
2023-07-06T04:48:25.892Z,12.61
2023-07-06T04:50:56.246Z,12.69
2023-07-06T04:53:24.831Z,12.72
2023-07-06T04:55:53.261Z,12.82
2023-07-06T04:58:21.284Z,12.81
2023-07-06T05:00:51.756Z,12.95
2023-07-06T05:03:19.558Z,13.08
2023-07-06T05:05:48.403Z,13.20
2023-07-06T05:08:18.510Z,13.32
2023-07-06T05:10:52.490Z,13.43
2023-07-06T05:13:22.998Z,13.57
2023-07-06T05:15:53.043Z,13.70
2023-07-06T05:18:21.736Z,13.81
2023-07-06T05:20:51.951Z,13.88
2023-07-06T05:23:21.580Z,13.98
2023-07-06T05:25:54.146Z,14.12
2023-07-06T05:28:22.445Z,14.19
2023-07-06T05:30:51.472Z,14.28
2023-07-06T05:33:19.377Z,14.38
2023-07-06T05:35:50.853Z,14.46
2023-07-06T05:38:21.019Z,14.52
2023-07-06T05:40:48.950Z,14.59
2023-07-06T05:43:19.378Z,14.66
2023-07-06T05:45:48.773Z,14.76
2023-07-06T05:48:16.941Z,14.81
2023-07-06T05:50:44.773Z,14.90
2023-07-06T05:53:13.774Z,14.96
2023-07-06T05:55:45.042Z,15.05
2023-07-06T05:58:17.875Z,15.18
2023-07-06T06:00:45.948Z,15.27
2023-07-06T06:03:13.967Z,15.41
2023-07-06T06:05:43.770Z,15.52
2023-07-06T06:08:12.111Z,15.66
2023-07-06T06:10:40.228Z,15.73
2023-07-06T06:13:08.182Z,15.78
2023-07-06T06:15:37.230Z,15.70
2023-07-06T06:18:05.833Z,15.86
2023-07-06T06:20:33.838Z,15.92
2023-07-06T06:23:02.084Z,15.85
2023-07-06T06:25:30.112Z,15.97
2023-07-06T06:27:57.861Z,16.02
2023-07-06T06:30:26.090Z,16.09
2023-07-06T06:32:54.268Z,16.16
2023-07-06T06:35:31.281Z,16.14
2023-07-06T06:37:59.536Z,16.20
2023-07-06T06:40:30.866Z,16.31
2023-07-06T06:43:01.530Z,16.48
2023-07-06T06:45:29.435Z,16.54
2023-07-06T06:47:57.619Z,16.64
2023-07-06T06:50:25.980Z,16.67
2023-07-06T06:52:54.098Z,16.75
2023-07-06T06:55:22.060Z,16.79
2023-07-06T06:57:51.727Z,16.95
2023-07-06T07:00:20.278Z,17.09
2023-07-06T07:02:48.247Z,17.05
2023-07-06T07:05:18.804Z,17.13
2023-07-06T07:07:46.724Z,17.12
2023-07-06T07:10:15.036Z,17.23
2023-07-06T07:12:45.242Z,17.40
2023-07-06T07:15:18.073Z,17.70
2023-07-06T07:17:47.034Z,17.89
2023-07-06T07:20:16.120Z,18.19
2023-07-06T07:22:45.978Z,18.35
2023-07-06T07:25:14.434Z,18.16
2023-07-06T07:27:42.396Z,18.05
2023-07-06T07:30:13.102Z,18.10
2023-07-06T07:32:43.220Z,18.25
2023-07-06T07:35:11.348Z,18.44
2023-07-06T07:37:39.813Z,18.81
2023-07-06T07:40:08.926Z,19.16
2023-07-06T07:42:37.739Z,19.41
2023-07-06T07:45:07.239Z,19.66
2023-07-06T07:47:35.257Z,19.86
2023-07-06T07:50:06.494Z,20.14
2023-07-06T07:52:35.610Z,20.21
2023-07-06T07:55:03.717Z,20.42
2023-07-06T07:57:32.025Z,20.66
2023-07-06T07:59:59.937Z,20.83
2023-07-06T08:02:29.553Z,20.99
2023-07-06T08:04:58.401Z,21.03
2023-07-06T08:07:27.725Z,21.14
2023-07-06T08:09:55.734Z,21.31
2023-07-06T08:12:23.812Z,21.50
2023-07-06T08:14:51.755Z,21.74
2023-07-06T08:17:19.794Z,21.89
2023-07-06T08:20:09.782Z,21.79
2023-07-06T08:22:37.086Z,21.75
2023-07-06T08:25:13.130Z,21.72
2023-07-06T08:27:41.271Z,21.92
2023-07-06T08:30:10.364Z,22.23
2023-07-06T08:32:41.065Z,22.54
2023-07-06T08:35:10.632Z,22.67
2023-07-06T08:37:38.787Z,22.64
2023-07-06T08:40:11.102Z,22.80
2023-07-06T08:42:42.002Z,22.90
2023-07-06T08:45:22.710Z,23.08
2023-07-06T08:47:52.773Z,23.18
2023-07-06T08:50:30.826Z,23.36
2023-07-06T08:53:01.885Z,23.59
2023-07-06T08:55:32.558Z,23.71
2023-07-06T08:58:04.896Z,23.77
2023-07-06T09:00:32.970Z,23.81
2023-07-06T09:03:17.489Z,23.88
2023-07-06T09:05:49.407Z,23.97
2023-07-06T09:08:20.368Z,24.15
2023-07-06T09:10:50.723Z,24.20
2023-07-06T09:13:25.116Z,24.35
2023-07-06T09:16:04.935Z,24.36
2023-07-06T09:18:33.026Z,24.39
2023-07-06T09:21:01.939Z,24.48
2023-07-06T09:23:32.043Z,24.52
2023-07-06T09:25:59.963Z,24.53
2023-07-06T09:28:30.753Z,24.48
2023-07-06T09:31:20.923Z,24.36
2023-07-06T09:33:54.343Z,24.71
2023-07-06T09:36:27.292Z,24.83
2023-07-06T09:39:01.600Z,24.68
2023-07-06T09:41:32.284Z,24.99
2023-07-06T09:44:06.218Z,25.35
2023-07-06T09:46:38.720Z,25.51
2023-07-06T09:49:19.539Z,25.55
2023-07-06T09:51:59.959Z,25.48
2023-07-06T09:54:58.764Z,25.64
2023-07-06T09:57:31.957Z,25.69
2023-07-06T10:00:01.837Z,25.79
2023-07-06T10:03:17.722Z,26.07
2023-07-06T10:05:59.310Z,26.09
2023-07-06T10:08:41.956Z,26.29
2023-07-06T10:11:29.760Z,26.44
2023-07-06T10:13:57.895Z,26.77
2023-07-06T10:16:48.040Z,27.16
2023-07-06T10:19:34.556Z,27.35
2023-07-06T10:22:06.135Z,27.22
2023-07-06T10:25:12.432Z,27.13
2023-07-06T10:27:56.602Z,27.22
2023-07-06T10:30:37.639Z,27.45
2023-07-06T10:33:18.386Z,26.51
2023-07-06T10:35:49.756Z,26.60
2023-07-06T10:38:18.137Z,26.90
2023-07-06T10:40:53.062Z,27.21
2023-07-06T10:43:24.949Z,27.59
2023-07-06T10:45:54.896Z,28.01
2023-07-06T10:48:38.150Z,28.02
2023-07-06T10:51:25.193Z,27.97
2023-07-06T10:54:13.001Z,26.99
2023-07-06T10:56:47.184Z,26.65
2023-07-06T10:59:32.726Z,27.02
2023-07-06T11:02:26.460Z,27.50
2023-07-06T11:05:10.088Z,27.43
2023-07-06T11:07:46.861Z,27.19
2023-07-06T11:10:14.781Z,27.38
2023-07-06T11:12:58.927Z,26.58
2023-07-06T11:15:40.143Z,26.36
2023-07-06T11:18:30.473Z,25.74
2023-07-06T11:21:00.428Z,25.28
2023-07-06T11:23:48.957Z,25.59
2023-07-06T11:26:27.225Z,26.53
2023-07-06T11:28:56.963Z,26.65
2023-07-06T11:31:30.628Z,26.30
2023-07-06T11:34:32.090Z,26.51
2023-07-06T11:37:26.175Z,25.92
2023-07-06T11:40:35.013Z,25.67
2023-07-06T11:43:06.012Z,24.92
2023-07-06T11:45:45.056Z,24.36
2023-07-06T11:48:19.609Z,24.21
2023-07-06T11:50:48.244Z,23.97
2023-07-06T11:53:45.901Z,23.67
2023-07-06T11:56:23.957Z,23.55
2023-07-06T11:58:52.702Z,24.21
2023-07-06T12:01:44.306Z,25.33
2023-07-06T12:04:21.831Z,26.15
2023-07-06T12:06:51.770Z,27.06
2023-07-06T12:09:23.823Z,27.77
2023-07-06T12:12:16.065Z,28.07
2023-07-06T12:14:44.427Z,28.17
2023-07-06T12:17:14.134Z,28.53
2023-07-06T12:19:43.133Z,28.76
2023-07-06T12:22:19.613Z,28.86
2023-07-06T12:24:47.815Z,29.04
2023-07-06T12:27:17.661Z,29.03
2023-07-06T12:29:46.887Z,29.25
2023-07-06T12:32:23.474Z,29.35
2023-07-06T12:34:54.763Z,29.69
2023-07-06T12:37:25.059Z,30.27
2023-07-06T12:39:53.242Z,30.71
2023-07-06T12:42:23.213Z,30.40
2023-07-06T12:44:53.607Z,30.51
2023-07-06T12:47:26.183Z,30.36
2023-07-06T12:49:59.541Z,30.22
2023-07-06T12:52:29.291Z,30.20
2023-07-06T12:54:57.726Z,29.98
2023-07-06T12:57:29.274Z,29.90
2023-07-06T13:00:13.833Z,29.90
2023-07-06T13:02:43.885Z,29.90
2023-07-06T13:05:29.844Z,28.83
2023-07-06T13:07:58.206Z,29.00
2023-07-06T13:10:30.922Z,29.50
2023-07-06T13:12:58.959Z,30.05
2023-07-06T13:15:38.396Z,30.60
2023-07-06T13:18:16.370Z,30.44
2023-07-06T13:20:46.943Z,30.64
2023-07-06T13:23:14.994Z,30.70
2023-07-06T13:25:45.992Z,30.94
2023-07-06T13:30:52.600Z,29.02
2023-07-06T13:33:21.621Z,28.73
2023-07-06T13:35:49.745Z,29.30
2023-07-06T13:38:18.045Z,29.82
2023-07-06T13:40:49.896Z,30.29
2023-07-06T13:43:24.720Z,30.22
2023-07-06T13:45:53.753Z,30.45
2023-07-06T13:48:21.782Z,30.12
2023-07-06T13:50:49.683Z,29.39
2023-07-06T13:53:18.751Z,28.17
2023-07-06T13:55:50.496Z,28.02
2023-07-06T13:58:25.700Z,27.64
2023-07-06T14:00:54.329Z,27.16
2023-07-06T14:03:25.978Z,27.38
2023-07-06T14:05:55.440Z,27.97
2023-07-06T14:08:26.759Z,28.66
2023-07-06T14:10:55.893Z,28.68
2023-07-06T14:13:25.313Z,28.97
2023-07-06T14:15:53.528Z,29.66
2023-07-06T14:18:22.259Z,30.14
2023-07-06T14:20:51.659Z,29.98
2023-07-06T14:23:20.915Z,30.12
2023-07-06T14:25:48.934Z,30.09
2023-07-06T14:28:19.999Z,30.36
2023-07-06T14:30:51.376Z,29.54
2023-07-06T14:33:20.687Z,28.25
2023-07-06T14:35:48.786Z,27.70
2023-07-06T14:38:16.563Z,28.48
2023-07-06T14:40:47.064Z,28.47
2023-07-06T14:43:15.711Z,28.07
2023-07-06T14:45:46.471Z,28.84
2023-07-06T14:48:15.127Z,29.30
2023-07-06T14:50:43.310Z,29.27
2023-07-06T14:53:12.595Z,28.76
2023-07-06T14:55:41.979Z,28.92
2023-07-06T14:58:10.547Z,29.25
2023-07-06T15:00:38.918Z,28.86
2023-07-06T15:03:07.045Z,29.41
2023-07-06T15:05:35.538Z,29.81
2023-07-06T15:08:04.094Z,30.01
2023-07-06T15:10:32.232Z,30.09
2023-07-06T15:13:00.224Z,30.16
2023-07-06T15:15:29.188Z,29.92
2023-07-06T15:17:57.130Z,29.82
2023-07-06T15:20:26.764Z,29.00
2023-07-06T15:22:54.760Z,27.94
2023-07-06T15:25:22.817Z,28.15
2023-07-06T15:27:50.735Z,28.47
2023-07-06T15:30:19.350Z,28.79
2023-07-06T15:32:47.167Z,28.95
2023-07-06T15:35:15.134Z,28.93
2023-07-06T15:37:43.539Z,28.68
2023-07-06T15:40:12.356Z,27.96
2023-07-06T15:42:40.419Z,27.43
2023-07-06T15:45:09.244Z,26.96
2023-07-06T15:47:44.760Z,26.63
2023-07-06T15:50:25.173Z,26.23
2023-07-06T15:52:53.298Z,25.84
2023-07-06T15:55:21.220Z,25.51
2023-07-06T15:57:49.128Z,25.38
2023-07-06T16:00:17.232Z,25.23
2023-07-06T16:02:45.094Z,25.10
2023-07-06T16:05:13.241Z,24.79
2023-07-06T16:07:41.142Z,24.59
2023-07-06T16:10:12.224Z,24.53
2023-07-06T16:12:40.332Z,24.45
2023-07-06T16:15:09.206Z,24.49
2023-07-06T16:17:37.186Z,24.45
2023-07-06T16:20:05.660Z,24.47
2023-07-06T16:22:33.908Z,24.55
2023-07-06T16:25:01.866Z,24.56
2023-07-06T16:27:30.799Z,24.42
2023-07-06T16:29:58.688Z,24.25
2023-07-06T16:32:26.549Z,24.11
2023-07-06T16:34:54.344Z,23.97
2023-07-06T16:37:23.260Z,23.88
2023-07-06T16:39:51.154Z,23.70
2023-07-06T16:42:19.172Z,23.65
2023-07-06T16:44:47.809Z,23.62
2023-07-06T16:47:15.800Z,23.65
2023-07-06T16:49:43.642Z,23.67
2023-07-06T16:52:11.898Z,23.66
2023-07-06T16:54:39.995Z,23.65
2023-07-06T16:57:07.946Z,23.56
2023-07-06T16:59:36.323Z,23.47
2023-07-06T17:02:05.993Z,23.39
2023-07-06T17:04:34.799Z,23.39
2023-07-06T17:07:02.682Z,23.43
2023-07-06T17:09:32.008Z,23.29
2023-07-06T17:12:00.860Z,23.25
2023-07-06T17:14:28.651Z,23.20
2023-07-06T17:16:56.573Z,23.11
2023-07-06T17:19:24.549Z,23.04
2023-07-06T17:21:52.291Z,22.97
2023-07-06T17:24:20.230Z,22.86
2023-07-06T17:26:48.200Z,22.84
2023-07-06T17:29:16.141Z,22.77
2023-07-06T17:31:47.588Z,22.80
2023-07-06T17:34:16.093Z,22.75
2023-07-06T17:36:44.002Z,22.74
2023-07-06T17:39:11.985Z,22.68
2023-07-06T17:41:41.452Z,22.53
2023-07-06T17:44:11.872Z,22.40
2023-07-06T17:46:40.427Z,22.33
2023-07-06T17:49:09.228Z,22.26
2023-07-06T17:51:37.265Z,22.19
2023-07-06T17:54:05.053Z,22.17
2023-07-06T17:56:32.922Z,22.13
2023-07-06T17:59:00.874Z,22.16
2023-07-06T18:01:28.979Z,22.09
2023-07-06T18:03:57.049Z,21.96
2023-07-06T18:06:25.501Z,21.91
2023-07-06T18:08:53.667Z,21.88
2023-07-06T18:11:21.451Z,21.88
2023-07-06T18:13:49.226Z,21.92
2023-07-06T18:16:17.260Z,21.92
2023-07-06T18:18:45.612Z,21.88
2023-07-06T18:21:13.345Z,21.89
2023-07-06T18:23:43.468Z,21.81
2023-07-06T18:26:13.327Z,21.78
2023-07-06T18:28:41.508Z,21.78
2023-07-06T18:31:10.665Z,21.71
2023-07-06T18:33:38.905Z,21.61
2023-07-06T18:36:07.091Z,21.45
2023-07-06T18:38:35.141Z,21.40
2023-07-06T18:41:05.252Z,21.34
2023-07-06T18:43:38.092Z,21.23
2023-07-06T18:46:06.506Z,21.17
2023-07-06T18:48:34.860Z,21.03
2023-07-06T18:51:06.006Z,20.97
2023-07-06T18:53:45.028Z,20.89
2023-07-06T18:56:13.956Z,20.86
2023-07-06T18:58:41.907Z,20.75
2023-07-06T19:01:12.470Z,20.69
2023-07-06T19:03:41.817Z,20.64
2023-07-06T19:06:17.792Z,20.55
2023-07-06T19:08:48.033Z,20.44
2023-07-06T19:11:17.618Z,20.37
2023-07-06T19:13:45.788Z,20.29
2023-07-06T19:16:15.345Z,20.24
2023-07-06T19:18:43.244Z,20.14
2023-07-06T19:21:14.042Z,20.07
2023-07-06T19:23:42.519Z,19.98
2023-07-06T19:26:11.246Z,19.93
2023-07-06T19:28:39.143Z,19.81
2023-07-06T19:31:07.187Z,19.76
2023-07-06T19:33:35.734Z,19.66
2023-07-06T19:36:06.638Z,19.59
2023-07-06T19:38:34.588Z,19.52
2023-07-06T19:41:02.478Z,19.42
2023-07-06T19:43:30.471Z,19.31
2023-07-06T19:46:19.477Z,19.22
2023-07-06T19:48:50.324Z,19.15
2023-07-06T19:51:21.427Z,19.07
2023-07-06T19:53:50.389Z,19.01
2023-07-06T19:56:20.760Z,18.97
2023-07-06T19:58:48.920Z,18.87
2023-07-06T20:01:20.490Z,18.81
2023-07-06T20:03:49.225Z,18.74
2023-07-06T20:06:17.584Z,18.70
2023-07-06T20:08:45.530Z,18.61
2023-07-06T20:11:13.576Z,18.56
2023-07-06T20:13:44.526Z,18.47
2023-07-06T20:16:13.067Z,18.40
2023-07-06T20:18:42.202Z,18.35
2023-07-06T20:21:13.137Z,18.30
2023-07-06T20:23:41.447Z,18.23
2023-07-06T20:26:10.884Z,18.17
2023-07-06T20:28:39.114Z,18.15
2023-07-06T20:31:08.931Z,18.05
2023-07-06T20:33:36.993Z,18.02
2023-07-06T20:36:08.149Z,17.99
2023-07-06T20:38:37.643Z,17.96
2023-07-06T20:41:05.856Z,17.91
2023-07-06T20:43:34.140Z,17.86
2023-07-06T20:46:02.506Z,17.78
2023-07-06T20:48:30.233Z,17.75
2023-07-06T20:50:59.108Z,17.68
2023-07-06T20:53:27.807Z,17.64
2023-07-06T20:55:56.323Z,17.60
2023-07-06T20:58:24.462Z,17.54
2023-07-06T21:00:53.733Z,17.48
2023-07-06T21:03:25.011Z,17.44
2023-07-06T21:05:53.921Z,17.40
2023-07-06T21:08:22.063Z,17.36
2023-07-06T21:10:50.048Z,17.27
2023-07-06T21:13:18.365Z,17.24
2023-07-06T21:15:46.222Z,17.19
2023-07-06T21:18:14.569Z,17.13
2023-07-06T21:20:42.692Z,17.09
2023-07-06T21:23:10.628Z,17.12
2023-07-06T21:25:38.888Z,17.12
2023-07-06T21:28:07.104Z,17.10
2023-07-06T21:30:35.001Z,17.09
2023-07-06T21:33:02.841Z,17.05
2023-07-06T21:35:30.634Z,17.02
2023-07-06T21:37:58.513Z,16.95
2023-07-06T21:40:26.241Z,16.90
2023-07-06T21:42:54.072Z,16.82
2023-07-06T21:45:21.919Z,16.80
2023-07-06T21:47:50.505Z,16.78
2023-07-06T21:50:18.425Z,16.76
2023-07-06T21:52:46.369Z,16.73
2023-07-06T21:55:14.345Z,16.69
2023-07-06T21:57:42.311Z,16.68
2023-07-06T22:00:12.827Z,16.59
2023-07-06T22:02:44.620Z,16.55
2023-07-06T22:05:12.845Z,16.50
2023-07-06T22:07:40.990Z,16.47
2023-07-06T22:10:11.311Z,16.42
2023-07-06T22:12:39.278Z,16.41
2023-07-06T22:15:11.940Z,16.40
2023-07-06T22:17:42.572Z,16.34
2023-07-06T22:20:10.636Z,16.27
2023-07-06T22:22:38.721Z,16.23
2023-07-06T22:25:07.060Z,16.20
2023-07-06T22:27:34.882Z,16.17
2023-07-06T22:30:03.947Z,16.16
2023-07-06T22:32:32.057Z,16.09
2023-07-06T22:35:00.857Z,16.06
2023-07-06T22:37:28.773Z,16.03
2023-07-06T22:39:56.722Z,16.03
2023-07-06T22:42:24.554Z,15.99
2023-07-06T22:44:52.441Z,15.97
2023-07-06T22:47:21.561Z,15.96
2023-07-06T22:49:49.574Z,15.92
2023-07-06T22:52:20.353Z,15.90
2023-07-06T22:54:48.198Z,15.87
2023-07-06T22:57:16.142Z,15.85
2023-07-06T22:59:43.898Z,15.86
2023-07-06T23:02:12.000Z,15.85
2023-07-06T23:04:40.228Z,15.83
2023-07-06T23:07:08.167Z,15.82
2023-07-06T23:09:36.123Z,15.79
2023-07-06T23:12:05.528Z,15.74
2023-07-06T23:14:33.599Z,15.73
2023-07-06T23:17:01.489Z,15.67
2023-07-06T23:19:29.275Z,15.69
2023-07-06T23:21:57.396Z,15.65
2023-07-06T23:24:29.821Z,15.62
2023-07-06T23:26:58.252Z,15.56
2023-07-06T23:29:34.205Z,15.53
2023-07-06T23:32:03.795Z,15.52
2023-07-06T23:34:32.788Z,15.51
2023-07-06T23:37:01.876Z,15.48
2023-07-06T23:39:29.936Z,15.44
2023-07-06T23:41:57.725Z,15.36
2023-07-06T23:44:25.734Z,15.31
2023-07-06T23:46:53.541Z,15.32
2023-07-06T23:49:21.421Z,15.25
2023-07-06T23:51:49.386Z,15.24
2023-07-06T23:54:22.071Z,15.18
2023-07-06T23:56:50.079Z,15.20
2023-07-06T23:59:17.938Z,15.14
